sensor_id;sensor_type;location;lat;lon;timestamp;pressure;altitude;pressure_sealevel;temperature;humidity
68628;BME280;55611;48.602;9.490;2023-02-26T00:01:20;96320;;;2.8;58.5
68628;BME280;55611;48.602;9.490;2023-02-26T00:03:51;96330;;;2.9;58
68628;BME280;55611;48.602;9.490;2023-02-26T00:06:21;96330;;;2.9;58
68628;BME280;55611;48.602;9.490;2023-02-26T00:08:52;96330;;;2.8;58
68628;BME280;55611;48.602;9.490;2023-02-26T00:11:22;96340;;;2.7;58
68628;BME280;55611;48.602;9.490;2023-02-26T00:13:53;96340;;;2.7;58
68628;BME280;55611;48.602;9.490;2023-02-26T00:16:32;96340;;;2.7;58
68628;BME280;55611;48.602;9.490;2023-02-26T00:18:55;96340;;;2.8;58.5
68628;BME280;55611;48.602;9.490;2023-02-26T00:21:26;96340;;;2.7;58.5
68628;BME280;55611;48.602;9.490;2023-02-26T00:23:56;96340;;;2.9;58.5
68628;BME280;55611;48.602;9.490;2023-02-26T00:26:27;96340;;;2.8;58.5
68628;BME280;55611;48.602;9.490;2023-02-26T00:28:58;96340;;;2.8;58.5
68628;BME280;55611;48.602;9.490;2023-02-26T00:31:29;96340;;;2.9;58.5
68628;BME280;55611;48.602;9.490;2023-02-26T00:33:59;96340;;;2.9;58.5
68628;BME280;55611;48.602;9.490;2023-02-26T00:41:32;96350;;;3;58.5
68628;BME280;55611;48.602;9.490;2023-02-26T00:44:03;96350;;;3.1;58
68628;BME280;55611;48.602;9.490;2023-02-26T00:46:37;96350;;;3.1;58.5
68628;BME280;55611;48.602;9.490;2023-02-26T00:49:41;96350;;;3;58.5
68628;BME280;55611;48.602;9.490;2023-02-26T00:52:09;96350;;;3;58.5
68628;BME280;55611;48.602;9.490;2023-02-26T00:54:12;96360;;;3.1;58.5
68628;BME280;55611;48.602;9.490;2023-02-26T00:56:36;96350;;;2.9;58.5
68628;BME280;55611;48.602;9.490;2023-02-26T00:59:07;96350;;;3;58.5
68628;BME280;55611;48.602;9.490;2023-02-26T01:01:38;96350;;;3.1;58.5
68628;BME280;55611;48.602;9.490;2023-02-26T01:04:09;96350;;;3.1;58.5
68628;BME280;55611;48.602;9.490;2023-02-26T01:06:42;96350;;;3;58.5
68628;BME280;55611;48.602;9.490;2023-02-26T01:09:13;96350;;;3;58.5
68628;BME280;55611;48.602;9.490;2023-02-26T01:11:41;96350;;;2.9;58.5
68628;BME280;55611;48.602;9.490;2023-02-26T01:14:12;96350;;;3;58.5
68628;BME280;55611;48.602;9.490;2023-02-26T01:17:15;96340;;;2.9;58.5
68628;BME280;55611;48.602;9.490;2023-02-26T01:21:45;96340;;;2.9;58.5
68628;BME280;55611;48.602;9.490;2023-02-26T01:24:14;96340;;;3;58.5
68628;BME280;55611;48.602;9.490;2023-02-26T01:26:45;96340;;;3;58.5
68628;BME280;55611;48.602;9.490;2023-02-26T01:29:16;96350;;;3;58.5
68628;BME280;55611;48.602;9.490;2023-02-26T01:31:48;96340;;;2.9;58.5
68628;BME280;55611;48.602;9.490;2023-02-26T01:34:18;96340;;;3;58.5
68628;BME280;55611;48.602;9.490;2023-02-26T01:36:51;96340;;;2.9;58.5
68628;BME280;55611;48.602;9.490;2023-02-26T01:39:36;96350;;;2.8;59
68628;BME280;55611;48.602;9.490;2023-02-26T01:41:51;96340;;;2.9;59
68628;BME280;55611;48.602;9.490;2023-02-26T01:44:23;96340;;;2.9;59
68628;BME280;55611;48.602;9.490;2023-02-26T01:49:21;96350;;;2.8;59
68628;BME280;55611;48.602;9.490;2023-02-26T01:51:53;96350;;;2.8;58.5
68628;BME280;55611;48.602;9.490;2023-02-26T01:54:24;96350;;;2.8;58.5
68628;BME280;55611;48.602;9.490;2023-02-26T01:56:56;96350;;;2.7;58.5
68628;BME280;55611;48.602;9.490;2023-02-26T01:59:24;96350;;;2.7;58.5
68628;BME280;55611;48.602;9.490;2023-02-26T02:01:56;96350;;;2.8;58.5
68628;BME280;55611;48.602;9.490;2023-02-26T02:04:26;96350;;;2.7;58.5
68628;BME280;55611;48.602;9.490;2023-02-26T02:06:57;96350;;;2.6;58.5
68628;BME280;55611;48.602;9.490;2023-02-26T02:09:27;96350;;;2.6;58.5
68628;BME280;55611;48.602;9.490;2023-02-26T02:12:02;96360;;;2.5;58.5
68628;BME280;55611;48.602;9.490;2023-02-26T02:14:30;96360;;;2.5;58.5
68628;BME280;55611;48.602;9.490;2023-02-26T02:17:02;96350;;;2.6;58.5
68628;BME280;55611;48.602;9.490;2023-02-26T02:19:40;96360;;;2.5;58.5
68628;BME280;55611;48.602;9.490;2023-02-26T02:22:10;96360;;;2.4;58.5
68628;BME280;55611;48.602;9.490;2023-02-26T02:27:12;96360;;;2.3;58.5
68628;BME280;55611;48.602;9.490;2023-02-26T02:29:43;96370;;;2.2;58.5
68628;BME280;55611;48.602;9.490;2023-02-26T02:32:21;96370;;;2.2;58
68628;BME280;55611;48.602;9.490;2023-02-26T02:39:39;96380;;;2.2;58
68628;BME280;55611;48.602;9.490;2023-02-26T02:42:17;96380;;;2.1;58
68628;BME280;55611;48.602;9.490;2023-02-26T02:44:39;96380;;;2.2;58
68628;BME280;55611;48.602;9.490;2023-02-26T02:47:09;96380;;;2.2;58
68628;BME280;55611;48.602;9.490;2023-02-26T02:49:41;96390;;;2.2;58
68628;BME280;55611;48.602;9.490;2023-02-26T02:52:14;96390;;;2.2;58
68628;BME280;55611;48.602;9.490;2023-02-26T02:54:45;96390;;;2.2;57.5
68628;BME280;55611;48.602;9.490;2023-02-26T02:57:15;96390;;;2.1;57.5
68628;BME280;55611;48.602;9.490;2023-02-26T02:59:44;96390;;;2.1;58
68628;BME280;55611;48.602;9.490;2023-02-26T03:02:31;96390;;;2.1;58
68628;BME280;55611;48.602;9.490;2023-02-26T03:04:44;96380;;;2.1;57.5
68628;BME280;55611;48.602;9.490;2023-02-26T03:07:15;96390;;;2;58
68628;BME280;55611;48.602;9.490;2023-02-26T03:09:46;96390;;;2;58
68628;BME280;55611;48.602;9.490;2023-02-26T03:12:17;96400;;;2;58
68628;BME280;55611;48.602;9.490;2023-02-26T03:14:48;96400;;;2;58
68628;BME280;55611;48.602;9.490;2023-02-26T03:17:22;96400;;;1.9;58
68628;BME280;55611;48.602;9.490;2023-02-26T03:22:24;96400;;;1.9;57.5
68628;BME280;55611;48.602;9.490;2023-02-26T03:25:07;96410;;;1.8;57.5
68628;BME280;55611;48.602;9.490;2023-02-26T03:27:25;96410;;;1.7;58
68628;BME280;55611;48.602;9.490;2023-02-26T03:29:54;96410;;;1.7;57.5
68628;BME280;55611;48.602;9.490;2023-02-26T03:32:26;96410;;;1.7;57.5
68628;BME280;55611;48.602;9.490;2023-02-26T03:34:57;96410;;;1.6;57.5
68628;BME280;55611;48.602;9.490;2023-02-26T03:37:40;96410;;;1.6;57.5
68628;BME280;55611;48.602;9.490;2023-02-26T03:39:55;96410;;;1.6;57.5
68628;BME280;55611;48.602;9.490;2023-02-26T03:42:27;96420;;;1.5;58
68628;BME280;55611;48.602;9.490;2023-02-26T03:44:57;96410;;;1.5;57.5
68628;BME280;55611;48.602;9.490;2023-02-26T03:47:27;96410;;;1.4;57.5
68628;BME280;55611;48.602;9.490;2023-02-26T03:50:00;96420;;;1.4;58
68628;BME280;55611;48.602;9.490;2023-02-26T03:52:29;96410;;;1.4;58
68628;BME280;55611;48.602;9.490;2023-02-26T03:57:30;96420;;;1.4;58
68628;BME280;55611;48.602;9.490;2023-02-26T04:00:01;96420;;;1.4;58
68628;BME280;55611;48.602;9.490;2023-02-26T04:02:33;96430;;;1.3;58
68628;BME280;55611;48.602;9.490;2023-02-26T04:05:07;96430;;;1.3;58
68628;BME280;55611;48.602;9.490;2023-02-26T04:07:33;96440;;;1.3;58
68628;BME280;55611;48.602;9.490;2023-02-26T04:10:04;96430;;;1.3;58
68628;BME280;55611;48.602;9.490;2023-02-26T04:12:35;96440;;;1.3;58
68628;BME280;55611;48.602;9.490;2023-02-26T04:15:06;96430;;;1.4;58
68628;BME280;55611;48.602;9.490;2023-02-26T04:17:36;96440;;;1.4;58
68628;BME280;55611;48.602;9.490;2023-02-26T04:20:07;96440;;;1.3;58
68628;BME280;55611;48.602;9.490;2023-02-26T04:30:09;96450;;;1.1;57.5
68628;BME280;55611;48.602;9.490;2023-02-26T04:32:39;96450;;;1.1;57.5
68628;BME280;55611;48.602;9.490;2023-02-26T04:35:10;96450;;;1;57.5
68628;BME280;55611;48.602;9.490;2023-02-26T04:37:41;96450;;;1;57.5
68628;BME280;55611;48.602;9.490;2023-02-26T04:40:11;96460;;;0.9;57.5
68628;BME280;55611;48.602;9.490;2023-02-26T04:42:42;96460;;;0.9;57.5
68628;BME280;55611;48.602;9.490;2023-02-26T04:45:13;96460;;;0.8;57.5
68628;BME280;55611;48.602;9.490;2023-02-26T04:47:44;96460;;;0.8;57.5
68628;BME280;55611;48.602;9.490;2023-02-26T04:50:15;96470;;;0.8;57.5
68628;BME280;55611;48.602;9.490;2023-02-26T04:52:45;96470;;;0.8;57.5
68628;BME280;55611;48.602;9.490;2023-02-26T04:57:46;96470;;;0.8;57.5
68628;BME280;55611;48.602;9.490;2023-02-26T05:00:17;96470;;;0.8;57.5
68628;BME280;55611;48.602;9.490;2023-02-26T05:02:48;96470;;;0.8;57.5
68628;BME280;55611;48.602;9.490;2023-02-26T05:05:19;96470;;;0.8;57.5
68628;BME280;55611;48.602;9.490;2023-02-26T05:07:49;96480;;;0.7;57.5
68628;BME280;55611;48.602;9.490;2023-02-26T05:10:20;96480;;;0.7;57.5
68628;BME280;55611;48.602;9.490;2023-02-26T05:12:51;96480;;;0.7;57.5
68628;BME280;55611;48.602;9.490;2023-02-26T05:15:22;96480;;;0.7;57.5
68628;BME280;55611;48.602;9.490;2023-02-26T05:17:53;96480;;;0.7;57.5
68628;BME280;55611;48.602;9.490;2023-02-26T05:22:54;96480;;;0.5;57.5
68628;BME280;55611;48.602;9.490;2023-02-26T05:27:55;96490;;;0.4;57.5
68628;BME280;55611;48.602;9.490;2023-02-26T05:30:26;96490;;;0.4;57.5
68628;BME280;55611;48.602;9.490;2023-02-26T05:32:57;96490;;;0.3;57.5
68628;BME280;55611;48.602;9.490;2023-02-26T05:35:27;96490;;;0.3;57.5
68628;BME280;55611;48.602;9.490;2023-02-26T05:37:58;96500;;;0.2;57.5
68628;BME280;55611;48.602;9.490;2023-02-26T05:40:29;96500;;;0.2;57.5
68628;BME280;55611;48.602;9.490;2023-02-26T05:43:00;96510;;;0.2;57.5
68628;BME280;55611;48.602;9.490;2023-02-26T05:45:30;96510;;;0.3;57.5
68628;BME280;55611;48.602;9.490;2023-02-26T05:50:32;96520;;;0.4;58
68628;BME280;55611;48.602;9.490;2023-02-26T05:55:33;96530;;;0.7;58
68628;BME280;55611;48.602;9.490;2023-02-26T05:58:04;96530;;;0.8;58
68628;BME280;55611;48.602;9.490;2023-02-26T06:03:05;96530;;;1;58
68628;BME280;55611;48.602;9.490;2023-02-26T06:05:35;96530;;;1.1;58
68628;BME280;55611;48.602;9.490;2023-02-26T06:08:06;96540;;;1.1;58
68628;BME280;55611;48.602;9.490;2023-02-26T06:10:37;96540;;;1.2;58.5
68628;BME280;55611;48.602;9.490;2023-02-26T06:13:08;96540;;;1.2;58.5
68628;BME280;55611;48.602;9.490;2023-02-26T06:15:39;96540;;;1.3;58.5
68628;BME280;55611;48.602;9.490;2023-02-26T06:18:09;96540;;;1.3;58.5
68628;BME280;55611;48.602;9.490;2023-02-26T06:20:40;96550;;;1.4;58.5
68628;BME280;55611;48.602;9.490;2023-02-26T06:23:11;96560;;;1.4;58.5
68628;BME280;55611;48.602;9.490;2023-02-26T06:25:42;96560;;;1.5;58.5
68628;BME280;55611;48.602;9.490;2023-02-26T06:30:43;96570;;;1.5;58.5
68628;BME280;55611;48.602;9.490;2023-02-26T06:33:13;96570;;;1.5;58.5
68628;BME280;55611;48.602;9.490;2023-02-26T06:35:44;96570;;;1.5;58.5
68628;BME280;55611;48.602;9.490;2023-02-26T06:38:15;96570;;;1.6;58.5
68628;BME280;55611;48.602;9.490;2023-02-26T06:40:46;96580;;;1.6;59
68628;BME280;55611;48.602;9.490;2023-02-26T06:43:16;96580;;;1.6;59
68628;BME280;55611;48.602;9.490;2023-02-26T06:45:47;96580;;;1.7;59
68628;BME280;55611;48.602;9.490;2023-02-26T06:48:18;96580;;;1.8;59
68628;BME280;55611;48.602;9.490;2023-02-26T06:50:49;96580;;;1.7;59
68628;BME280;55611;48.602;9.490;2023-02-26T06:53:19;96590;;;1.7;59
68628;BME280;55611;48.602;9.490;2023-02-26T06:55:51;96600;;;1.7;59
68628;BME280;55611;48.602;9.490;2023-02-26T07:00:51;96610;;;1.8;59
68628;BME280;55611;48.602;9.490;2023-02-26T07:03:22;96610;;;1.8;59
68628;BME280;55611;48.602;9.490;2023-02-26T07:05:53;96610;;;1.8;59
68628;BME280;55611;48.602;9.490;2023-02-26T07:08:24;96610;;;1.9;59
68628;BME280;55611;48.602;9.490;2023-02-26T07:13:25;96620;;;1.9;59
68628;BME280;55611;48.602;9.490;2023-02-26T07:15:56;96620;;;1.9;59
68628;BME280;55611;48.602;9.490;2023-02-26T07:18:27;96620;;;1.9;59
68628;BME280;55611;48.602;9.490;2023-02-26T07:20:58;96620;;;1.8;59
68628;BME280;55611;48.602;9.490;2023-02-26T07:23:28;96620;;;1.7;59
68628;BME280;55611;48.602;9.490;2023-02-26T07:25:59;96630;;;1.7;59.5
68628;BME280;55611;48.602;9.490;2023-02-26T07:28:30;96630;;;1.8;59
68628;BME280;55611;48.602;9.490;2023-02-26T07:31:01;96630;;;1.9;59.5
68628;BME280;55611;48.602;9.490;2023-02-26T07:33:31;96630;;;1.9;59.5
68628;BME280;55611;48.602;9.490;2023-02-26T07:36:02;96630;;;1.9;59.5
68628;BME280;55611;48.602;9.490;2023-02-26T07:43:33;96640;;;1.6;59.5
68628;BME280;55611;48.602;9.490;2023-02-26T07:46:04;96640;;;1.8;59.5
68628;BME280;55611;48.602;9.490;2023-02-26T07:48:35;96640;;;2;59.5
68628;BME280;55611;48.602;9.490;2023-02-26T07:51:06;96640;;;1.9;59.5
68628;BME280;55611;48.602;9.490;2023-02-26T07:53:36;96640;;;1.9;59.5
68628;BME280;55611;48.602;9.490;2023-02-26T07:56:07;96650;;;2;59.5
68628;BME280;55611;48.602;9.490;2023-02-26T07:58:38;96650;;;2;59.5
68628;BME280;55611;48.602;9.490;2023-02-26T08:01:09;96650;;;2;59.5
68628;BME280;55611;48.602;9.490;2023-02-26T08:03:39;96650;;;2;59.5
68628;BME280;55611;48.602;9.490;2023-02-26T08:06:10;96650;;;1.9;59.5
68628;BME280;55611;48.602;9.490;2023-02-26T08:08:41;96650;;;1.7;59.5
68628;BME280;55611;48.602;9.490;2023-02-26T08:11:12;96660;;;1.7;59.5
68628;BME280;55611;48.602;9.490;2023-02-26T08:13:43;96660;;;1.7;59.5
68628;BME280;55611;48.602;9.490;2023-02-26T08:16:13;96660;;;1.7;59.5
68628;BME280;55611;48.602;9.490;2023-02-26T08:18:44;96660;;;1.7;59
68628;BME280;55611;48.602;9.490;2023-02-26T08:21:15;96660;;;1.7;59.5
68628;BME280;55611;48.602;9.490;2023-02-26T08:23:46;96670;;;1.8;59.5
68628;BME280;55611;48.602;9.490;2023-02-26T08:26:17;96660;;;2;59.5
68628;BME280;55611;48.602;9.490;2023-02-26T08:28:47;96670;;;2.1;59.5
68628;BME280;55611;48.602;9.490;2023-02-26T08:31:18;96670;;;2.2;59.5
68628;BME280;55611;48.602;9.490;2023-02-26T08:33:49;96670;;;2.3;59.5
68628;BME280;55611;48.602;9.490;2023-02-26T08:36:19;96670;;;2.3;59.5
68628;BME280;55611;48.602;9.490;2023-02-26T08:38:51;96670;;;2.3;59.5
68628;BME280;55611;48.602;9.490;2023-02-26T08:41:21;96680;;;2.3;59.5
68628;BME280;55611;48.602;9.490;2023-02-26T08:43:52;96680;;;2.1;59.5
68628;BME280;55611;48.602;9.490;2023-02-26T08:46:23;96680;;;2;59.5
68628;BME280;55611;48.602;9.490;2023-02-26T08:48:53;96680;;;1.9;60
68628;BME280;55611;48.602;9.490;2023-02-26T08:51:24;96680;;;2.2;60
68628;BME280;55611;48.602;9.490;2023-02-26T08:53:55;96680;;;2.3;60
68628;BME280;55611;48.602;9.490;2023-02-26T08:56:26;96670;;;2.3;60
68628;BME280;55611;48.602;9.490;2023-02-26T08:58:57;96680;;;2.4;60
68628;BME280;55611;48.602;9.490;2023-02-26T09:01:27;96680;;;2.4;60
68628;BME280;55611;48.602;9.490;2023-02-26T09:03:58;96680;;;2.4;60
68628;BME280;55611;48.602;9.490;2023-02-26T09:06:29;96680;;;2.5;60
68628;BME280;55611;48.602;9.490;2023-02-26T09:09:00;96690;;;2.7;60
68628;BME280;55611;48.602;9.490;2023-02-26T09:11:30;96690;;;2.5;60
68628;BME280;55611;48.602;9.490;2023-02-26T09:14:02;96700;;;2.2;60
68628;BME280;55611;48.602;9.490;2023-02-26T09:16:32;96710;;;2.2;60
68628;BME280;55611;48.602;9.490;2023-02-26T09:19:03;96710;;;2.3;60
68628;BME280;55611;48.602;9.490;2023-02-26T09:21:34;96710;;;2.2;60
68628;BME280;55611;48.602;9.490;2023-02-26T09:24:04;96720;;;2.2;60
68628;BME280;55611;48.602;9.490;2023-02-26T09:26:35;96720;;;2.3;60
68628;BME280;55611;48.602;9.490;2023-02-26T09:29:06;96730;;;2.2;60
68628;BME280;55611;48.602;9.490;2023-02-26T09:31:37;96720;;;2.2;60
68628;BME280;55611;48.602;9.490;2023-02-26T09:34:07;96730;;;2.4;60
68628;BME280;55611;48.602;9.490;2023-02-26T09:36:38;96730;;;2.4;60
68628;BME280;55611;48.602;9.490;2023-02-26T09:39:09;96730;;;2.6;60
68628;BME280;55611;48.602;9.490;2023-02-26T09:41:40;96720;;;2.7;60
68628;BME280;55611;48.602;9.490;2023-02-26T09:44:42;96730;;;2.8;60
68628;BME280;55611;48.602;9.490;2023-02-26T09:46:45;96740;;;2.7;60
68628;BME280;55611;48.602;9.490;2023-02-26T09:49:15;96740;;;2.7;60
68628;BME280;55611;48.602;9.490;2023-02-26T09:51:43;96730;;;2.7;60
68628;BME280;55611;48.602;9.490;2023-02-26T09:54:16;96730;;;2.6;60
68628;BME280;55611;48.602;9.490;2023-02-26T09:59:15;96730;;;2.8;60
68628;BME280;55611;48.602;9.490;2023-02-26T10:01:55;96740;;;2.6;60
68628;BME280;55611;48.602;9.490;2023-02-26T10:04:22;96740;;;2.6;60
68628;BME280;55611;48.602;9.490;2023-02-26T10:06:52;96740;;;2.6;60
68628;BME280;55611;48.602;9.490;2023-02-26T10:09:21;96740;;;2.7;60
68628;BME280;55611;48.602;9.490;2023-02-26T10:11:55;96740;;;2.6;60
68628;BME280;55611;48.602;9.490;2023-02-26T10:14:22;96740;;;2.6;60
68628;BME280;55611;48.602;9.490;2023-02-26T10:16:51;96730;;;2.7;60
68628;BME280;55611;48.602;9.490;2023-02-26T10:19:22;96730;;;2.7;60
68628;BME280;55611;48.602;9.490;2023-02-26T10:21:55;96740;;;2.7;60
68628;BME280;55611;48.602;9.490;2023-02-26T10:24:23;96740;;;2.7;60
68628;BME280;55611;48.602;9.490;2023-02-26T10:26:56;96740;;;2.8;60
68628;BME280;55611;48.602;9.490;2023-02-26T10:34:29;96740;;;2.6;60
68628;BME280;55611;48.602;9.490;2023-02-26T10:37:01;96750;;;2.6;60
68628;BME280;55611;48.602;9.490;2023-02-26T10:39:30;96740;;;2.5;60
68628;BME280;55611;48.602;9.490;2023-02-26T10:42:00;96750;;;2.6;60
68628;BME280;55611;48.602;9.490;2023-02-26T10:44:33;96750;;;2.7;60
68628;BME280;55611;48.602;9.490;2023-02-26T10:47:02;96750;;;2.9;60
68628;BME280;55611;48.602;9.490;2023-02-26T10:49:34;96740;;;2.9;60
68628;BME280;55611;48.602;9.490;2023-02-26T10:52:04;96750;;;2.9;60
68628;BME280;55611;48.602;9.490;2023-02-26T10:54:33;96740;;;3.1;60
68628;BME280;55611;48.602;9.490;2023-02-26T10:57:02;96750;;;3.2;60
68628;BME280;55611;48.602;9.490;2023-02-26T10:59:33;96740;;;3.1;60.5
68628;BME280;55611;48.602;9.490;2023-02-26T11:02:07;96750;;;3.1;60.5
68628;BME280;55611;48.602;9.490;2023-02-26T11:04:34;96750;;;3.3;60.5
68628;BME280;55611;48.602;9.490;2023-02-26T11:07:05;96750;;;3.4;60.5
68628;BME280;55611;48.602;9.490;2023-02-26T11:09:37;96750;;;3.4;60.5
68628;BME280;55611;48.602;9.490;2023-02-26T11:12:13;96760;;;3.3;60
68628;BME280;55611;48.602;9.490;2023-02-26T11:14:38;96750;;;3.3;60
68628;BME280;55611;48.602;9.490;2023-02-26T11:17:11;96750;;;3.3;60
68628;BME280;55611;48.602;9.490;2023-02-26T11:19:40;96750;;;3.2;60
68628;BME280;55611;48.602;9.490;2023-02-26T11:22:11;96760;;;3.2;60
68628;BME280;55611;48.602;9.490;2023-02-26T11:24:42;96760;;;3.3;60
68628;BME280;55611;48.602;9.490;2023-02-26T11:27:13;96750;;;3.3;60
68628;BME280;55611;48.602;9.490;2023-02-26T11:29:44;96750;;;3.4;60
68628;BME280;55611;48.602;9.490;2023-02-26T11:32:17;96760;;;3.4;60
68628;BME280;55611;48.602;9.490;2023-02-26T11:34:45;96760;;;3.3;60
68628;BME280;55611;48.602;9.490;2023-02-26T11:37:17;96750;;;3.4;60
68628;BME280;55611;48.602;9.490;2023-02-26T11:39:45;96760;;;3.5;60
68628;BME280;55611;48.602;9.490;2023-02-26T11:44:47;96750;;;3.2;60
68628;BME280;55611;48.602;9.490;2023-02-26T11:47:22;96750;;;3.2;60
68628;BME280;55611;48.602;9.490;2023-02-26T11:49:50;96750;;;3.2;60
68628;BME280;55611;48.602;9.490;2023-02-26T11:52:20;96750;;;3.2;60
68628;BME280;55611;48.602;9.490;2023-02-26T11:54:50;96760;;;3.3;60
68628;BME280;55611;48.602;9.490;2023-02-26T11:57:23;96760;;;3.4;60
68628;BME280;55611;48.602;9.490;2023-02-26T11:59:52;96760;;;3.4;60
68628;BME280;55611;48.602;9.490;2023-02-26T12:02:23;96760;;;3.4;60
68628;BME280;55611;48.602;9.490;2023-02-26T12:04:54;96750;;;3.4;60
68628;BME280;55611;48.602;9.490;2023-02-26T12:07:24;96760;;;3.5;60
68628;BME280;55611;48.602;9.490;2023-02-26T12:09:54;96760;;;3.5;60
68628;BME280;55611;48.602;9.490;2023-02-26T12:12:29;96760;;;3.6;60
68628;BME280;55611;48.602;9.490;2023-02-26T12:15:29;96760;;;3.7;60
68628;BME280;55611;48.602;9.490;2023-02-26T12:17:37;96760;;;3.8;60
68628;BME280;55611;48.602;9.490;2023-02-26T12:22:34;96760;;;3.8;60
68628;BME280;55611;48.602;9.490;2023-02-26T12:25:03;96760;;;3.6;60
68628;BME280;55611;48.602;9.490;2023-02-26T12:27:52;96760;;;3.6;60
68628;BME280;55611;48.602;9.490;2023-02-26T12:30:12;96760;;;3.6;60
68628;BME280;55611;48.602;9.490;2023-02-26T12:32:35;96760;;;3.6;60
68628;BME280;55611;48.602;9.490;2023-02-26T12:35:09;96760;;;3.7;60
68628;BME280;55611;48.602;9.490;2023-02-26T12:38:39;96760;;;3.8;60
68628;BME280;55611;48.602;9.490;2023-02-26T12:42:38;96770;;;3.6;59.5
68628;BME280;55611;48.602;9.490;2023-02-26T12:45:10;96760;;;3.6;59.5
68628;BME280;55611;48.602;9.490;2023-02-26T12:48:42;96770;;;3.6;59.5
68628;BME280;55611;48.602;9.490;2023-02-26T13:00:19;96770;;;3.8;60
68628;BME280;55611;48.602;9.490;2023-02-26T13:02:47;96770;;;4;59.5
68628;BME280;55611;48.602;9.490;2023-02-26T13:05:27;96770;;;4;59.5
68628;BME280;55611;48.602;9.490;2023-02-26T13:07:50;96770;;;4.1;59.5
68628;BME280;55611;48.602;9.490;2023-02-26T13:10:15;96770;;;4.1;60
68628;BME280;55611;48.602;9.490;2023-02-26T13:15:33;96770;;;3.9;60
68628;BME280;55611;48.602;9.490;2023-02-26T13:17:54;96780;;;3.9;60
68628;BME280;55611;48.602;9.490;2023-02-26T13:20:17;96770;;;4;59.5
68628;BME280;55611;48.602;9.490;2023-02-26T13:22:48;96770;;;4;60
68628;BME280;55611;48.602;9.490;2023-02-26T13:25:20;96770;;;4.3;60
68628;BME280;55611;48.602;9.490;2023-02-26T13:27:47;96770;;;4.4;59.5
68628;BME280;55611;48.602;9.490;2023-02-26T13:30:22;96770;;;4.2;60
68628;BME280;55611;48.602;9.490;2023-02-26T13:32:49;96770;;;4.2;60
68628;BME280;55611;48.602;9.490;2023-02-26T13:35:21;96770;;;4.1;59.5
68628;BME280;55611;48.602;9.490;2023-02-26T13:37:51;96770;;;4;59.5
68628;BME280;55611;48.602;9.490;2023-02-26T13:40:28;96780;;;4.1;59.5
68628;BME280;55611;48.602;9.490;2023-02-26T13:42:54;96780;;;4.1;59.5
68628;BME280;55611;48.602;9.490;2023-02-26T13:45:30;96790;;;4.1;59.5
68628;BME280;55611;48.602;9.490;2023-02-26T13:48:00;96790;;;4.2;59.5
68628;BME280;55611;48.602;9.490;2023-02-26T13:50:26;96780;;;4.3;60
68628;BME280;55611;48.602;9.490;2023-02-26T13:53:00;96780;;;4.3;60
68628;BME280;55611;48.602;9.490;2023-02-26T13:56:05;96780;;;4.4;60
68628;BME280;55611;48.602;9.490;2023-02-26T13:57:56;96780;;;4.5;60
68628;BME280;55611;48.602;9.490;2023-02-26T14:00:32;96790;;;4.5;60
68628;BME280;55611;48.602;9.490;2023-02-26T14:03:30;96790;;;4.3;60
68628;BME280;55611;48.602;9.490;2023-02-26T14:05:52;96780;;;4.4;60
68628;BME280;55611;48.602;9.490;2023-02-26T14:10:32;96790;;;4.5;60
68628;BME280;55611;48.602;9.490;2023-02-26T14:13:06;96790;;;4.4;60
68628;BME280;55611;48.602;9.490;2023-02-26T14:15:40;96790;;;4.4;60
68628;BME280;55611;48.602;9.490;2023-02-26T14:18:17;96780;;;4.4;60
68628;BME280;55611;48.602;9.490;2023-02-26T14:20:34;96790;;;4.4;60
68628;BME280;55611;48.602;9.490;2023-02-26T14:25:37;96800;;;4.3;60
68628;BME280;55611;48.602;9.490;2023-02-26T14:30:36;96800;;;3.7;60
68628;BME280;55611;48.602;9.490;2023-02-26T14:33:08;96810;;;3.4;60
68628;BME280;55611;48.602;9.490;2023-02-26T14:35:39;96810;;;3.3;60
68628;BME280;55611;48.602;9.490;2023-02-26T14:38:15;96810;;;3.4;59.5
68628;BME280;55611;48.602;9.490;2023-02-26T14:40:50;96810;;;3.4;59.5
68628;BME280;55611;48.602;9.490;2023-02-26T14:43:13;96810;;;3.6;59.5
68628;BME280;55611;48.602;9.490;2023-02-26T14:48:12;96810;;;4.3;59.5
68628;BME280;55611;48.602;9.490;2023-02-26T14:55:46;96800;;;4.9;59.5
68628;BME280;55611;48.602;9.490;2023-02-26T14:58:18;96810;;;4.7;59.5
68628;BME280;55611;48.602;9.490;2023-02-26T15:00:48;96820;;;4.6;59.5
68628;BME280;55611;48.602;9.490;2023-02-26T15:04:22;96830;;;4.6;59.5
68628;BME280;55611;48.602;9.490;2023-02-26T15:08:21;96820;;;4.5;59.5
68628;BME280;55611;48.602;9.490;2023-02-26T15:10:52;96820;;;4.5;59.5
68628;BME280;55611;48.602;9.490;2023-02-26T15:13:23;96830;;;4.5;59.5
68628;BME280;55611;48.602;9.490;2023-02-26T15:15:58;96860;;;4.4;59.5
68628;BME280;55611;48.602;9.490;2023-02-26T15:18:25;96870;;;3.9;59.5
68628;BME280;55611;48.602;9.490;2023-02-26T15:20:55;96850;;;3.7;59.5
68628;BME280;55611;48.602;9.490;2023-02-26T15:25:52;96860;;;3.6;59
68628;BME280;55611;48.602;9.490;2023-02-26T15:28:25;96860;;;3.7;59
68628;BME280;55611;48.602;9.490;2023-02-26T15:30:54;96860;;;3.7;59
68628;BME280;55611;48.602;9.490;2023-02-26T15:33:25;96860;;;3.8;59
68628;BME280;55611;48.602;9.490;2023-02-26T15:35:56;96870;;;3.8;59
68628;BME280;55611;48.602;9.490;2023-02-26T15:38:26;96870;;;3.9;59
68628;BME280;55611;48.602;9.490;2023-02-26T15:40:58;96880;;;3.8;59
68628;BME280;55611;48.602;9.490;2023-02-26T15:43:28;96880;;;3.7;59
68628;BME280;55611;48.602;9.490;2023-02-26T15:45:59;96890;;;3.8;59
68628;BME280;55611;48.602;9.490;2023-02-26T15:48:31;96890;;;3.6;59
68628;BME280;55611;48.602;9.490;2023-02-26T15:51:02;96890;;;3.4;59
68628;BME280;55611;48.602;9.490;2023-02-26T15:56:03;96890;;;3.3;59
68628;BME280;55611;48.602;9.490;2023-02-26T16:01:02;96880;;;3.4;59
68628;BME280;55611;48.602;9.490;2023-02-26T16:03:34;96890;;;3.5;59
68628;BME280;55611;48.602;9.490;2023-02-26T16:06:05;96890;;;3.4;59
68628;BME280;55611;48.602;9.490;2023-02-26T16:08:34;96890;;;3.4;58.5
68628;BME280;55611;48.602;9.490;2023-02-26T16:11:05;96900;;;3.4;59
68628;BME280;55611;48.602;9.490;2023-02-26T16:13:36;96900;;;3.5;58.5
68628;BME280;55611;48.602;9.490;2023-02-26T16:16:10;96900;;;3.5;58.5
68628;BME280;55611;48.602;9.490;2023-02-26T16:18:38;96900;;;3.6;58.5
68628;BME280;55611;48.602;9.490;2023-02-26T16:21:09;96910;;;3.6;58.5
68628;BME280;55611;48.602;9.490;2023-02-26T16:23:42;96910;;;3.7;58.5
68628;BME280;55611;48.602;9.490;2023-02-26T16:26:12;96910;;;3.7;58.5
68628;BME280;55611;48.602;9.490;2023-02-26T16:28:41;96910;;;3.7;58.5
68628;BME280;55611;48.602;9.490;2023-02-26T16:31:19;96920;;;3.7;58.5
68628;BME280;55611;48.602;9.490;2023-02-26T16:33:47;96930;;;3.7;58.5